Slate Hill, Pennsylvania
Current Conditions -  °F | °C
As of 10:53 PM on Monday 22 Dec 2014 (Local Time) from KLNS Reporting Station
Haze Haze  
Wind Chill: 32°   Ceiling: 1700
Heat Index: 37°   Visibility: 2.5mi
Dew Point: 36°   Wind: 7mph
Humidity: 96%   Direction: 60°ENE
Pressure: 30.11"   Gusts: NA
Location:  39.7547°N, 76.3317°W
Report Text: KLNS 230353Z AUTO 06006KT 2 1/2SM BR SCT007 BKN017 OVC033 03/02 A3011 RMK AO2 RAE43 SLP199 P0000 T00280022
Loading
Personal Weather Stations






























Interactive Weather Map New forecast layout! Learn more

10-Day Weather Forecast

Advertisements
Track Severe Weather on mobile